createdAt,value
2017-09-11T00:04:40.762Z,93.50
2017-09-11T00:09:41.825Z,93.40
2017-09-11T00:14:42.894Z,93.40
2017-09-11T00:19:43.962Z,93.50
2017-09-11T00:24:45.024Z,93.50
2017-09-11T00:29:46.841Z,93.70
2017-09-11T00:34:47.914Z,93.70
2017-09-11T00:39:48.994Z,93.90
2017-09-11T00:44:50.091Z,94.00
2017-09-11T00:49:51.165Z,94.10
2017-09-11T00:54:52.249Z,94.30
2017-09-11T00:59:53.323Z,94.40
2017-09-11T01:04:54.383Z,94.40
2017-09-11T01:09:55.451Z,94.40
2017-09-11T01:14:56.501Z,94.40
2017-09-11T01:19:57.614Z,94.50
2017-09-11T01:24:58.749Z,94.50
2017-09-11T01:30:00.595Z,94.50
2017-09-11T01:35:01.654Z,94.40
2017-09-11T01:40:02.742Z,94.40
2017-09-11T01:45:04.533Z,94.60
2017-09-11T01:50:06.338Z,94.60
2017-09-11T01:55:07.400Z,94.60
2017-09-11T02:00:08.575Z,94.60
2017-09-11T02:05:09.702Z,94.70
2017-09-11T02:10:10.758Z,94.70
2017-09-11T02:15:11.826Z,94.70
2017-09-11T02:20:12.905Z,94.80
2017-09-11T02:25:13.996Z,94.70
2017-09-11T02:30:16.471Z,94.80
2017-09-11T02:35:17.525Z,94.80
2017-09-11T02:40:18.591Z,94.80
2017-09-11T02:45:19.657Z,94.80
2017-09-11T02:50:20.730Z,94.80
2017-09-11T02:55:23.401Z,94.80
2017-09-11T03:00:24.459Z,94.80
2017-09-11T03:05:25.556Z,94.80
2017-09-11T03:10:26.614Z,94.80
2017-09-11T03:15:27.678Z,94.80
2017-09-11T03:20:28.721Z,94.90
2017-09-11T03:25:31.278Z,94.80
2017-09-11T03:30:32.367Z,94.80
2017-09-11T03:35:33.422Z,94.80
2017-09-11T03:40:35.225Z,94.90
2017-09-11T03:45:36.306Z,94.90
2017-09-11T03:50:37.381Z,94.90
2017-09-11T03:55:38.447Z,94.90
2017-09-11T04:00:39.505Z,94.90
2017-09-11T04:05:40.568Z,94.90
2017-09-11T04:10:41.636Z,94.90
2017-09-11T04:15:43.450Z,95.00
2017-09-11T04:20:44.510Z,94.90
2017-09-11T04:25:45.574Z,94.90
2017-09-11T04:30:46.649Z,94.90
2017-09-11T04:35:47.718Z,94.90
2017-09-11T04:40:48.798Z,94.80
2017-09-11T04:45:49.889Z,94.90
2017-09-11T04:50:50.962Z,94.90
2017-09-11T04:55:52.026Z,94.90
2017-09-11T05:00:53.091Z,95.00
2017-09-11T05:05:54.152Z,95.10
2017-09-11T05:10:55.222Z,95.10
2017-09-11T05:15:56.341Z,95.10
2017-09-11T05:20:58.134Z,95.10
2017-09-11T05:25:59.193Z,95.10
2017-09-11T05:31:00.289Z,95.10
2017-09-11T05:36:01.353Z,95.00
2017-09-11T05:41:02.409Z,95.10
2017-09-11T05:46:03.449Z,95.20
2017-09-11T05:51:04.516Z,95.30
2017-09-11T05:56:05.573Z,95.30
2017-09-11T06:01:06.634Z,95.10
2017-09-11T06:06:07.714Z,94.40
2017-09-11T06:11:09.534Z,91.50
2017-09-11T06:16:10.633Z,91.60
2017-09-11T06:21:11.844Z,90.80
2017-09-11T06:26:12.893Z,87.10
2017-09-11T06:31:14.257Z,80.70
2017-09-11T06:36:15.313Z,78.30
2017-09-11T06:41:16.367Z,76.30
2017-09-11T06:46:17.438Z,76.40
2017-09-11T06:51:18.497Z,74.20
2017-09-11T06:56:19.542Z,73.40
2017-09-11T07:01:20.621Z,60.80
2017-09-11T07:06:21.682Z,57.60
2017-09-11T07:11:22.759Z,54.80
2017-09-11T07:16:23.829Z,50.30
2017-09-11T07:21:24.893Z,50.00
2017-09-11T07:26:25.987Z,51.40
2017-09-11T07:31:27.782Z,56.00
2017-09-11T07:36:28.836Z,56.00
2017-09-11T07:41:29.872Z,53.60
2017-09-11T07:46:31.691Z,51.80
2017-09-11T07:51:32.744Z,51.70
2017-09-11T07:56:33.785Z,48.60
2017-09-11T08:01:34.822Z,49.70
2017-09-11T08:06:36.614Z,55.00
2017-09-11T08:11:37.668Z,54.30
2017-09-11T08:16:38.733Z,50.40
2017-09-11T08:21:39.769Z,48.20
2017-09-11T08:26:41.575Z,43.50
2017-09-11T08:31:42.645Z,43.10
2017-09-11T08:36:43.697Z,42.50
2017-09-11T08:41:44.750Z,43.50
2017-09-11T08:46:45.808Z,45.20
2017-09-11T08:51:46.857Z,45.90
2017-09-11T08:56:47.905Z,47.60
2017-09-11T09:01:48.982Z,51.50
2017-09-11T09:06:50.145Z,52.10
2017-09-11T09:11:54.799Z,53.70
2017-09-11T09:16:55.945Z,55.50
2017-09-11T09:21:57.026Z,52.80
2017-09-11T09:26:58.075Z,47.60
2017-09-11T09:32:00.089Z,44.50
2017-09-11T09:37:01.766Z,41.10
2017-09-11T09:42:02.853Z,40.60
2017-09-11T09:47:03.901Z,39.90
2017-09-11T09:52:04.950Z,38.80
2017-09-11T09:57:06.737Z,36.00
2017-09-11T10:02:07.774Z,36.00
2017-09-11T10:07:09.555Z,39.50
2017-09-11T10:12:10.617Z,38.50
2017-09-11T10:17:12.422Z,39.30
2017-09-11T10:22:14.481Z,39.60
2017-09-11T10:27:16.264Z,38.10
2017-09-11T10:32:21.142Z,37.50
2017-09-11T10:37:22.207Z,37.10
2017-09-11T10:42:23.308Z,36.20
2017-09-11T10:47:25.102Z,34.20
2017-09-11T10:52:26.912Z,34.60
2017-09-11T10:57:28.002Z,34.50
2017-09-11T11:02:32.838Z,37.80
2017-09-11T11:07:36.994Z,34.90
2017-09-11T11:12:38.818Z,36.40
2017-09-11T11:17:39.863Z,35.80
2017-09-11T11:22:40.915Z,37.20
2017-09-11T11:27:41.987Z,36.50
2017-09-11T11:32:43.078Z,35.40
2017-09-11T11:37:44.136Z,35.50
2017-09-11T11:42:45.189Z,35.90
2017-09-11T11:47:46.249Z,37.40
2017-09-11T11:52:47.326Z,36.00
2017-09-11T11:57:48.370Z,33.90
2017-09-11T12:02:49.405Z,32.90
2017-09-11T12:07:50.453Z,34.00
2017-09-11T12:12:51.502Z,33.50
2017-09-11T12:17:52.557Z,34.30
2017-09-11T12:22:53.609Z,34.80
2017-09-11T12:27:54.658Z,35.60
2017-09-11T12:32:55.711Z,36.20
2017-09-11T12:48:53.470Z,34.40
2017-09-11T12:53:54.505Z,36.70
2017-09-11T12:58:56.290Z,40.30
2017-09-11T13:03:58.089Z,41.40
2017-09-11T13:08:59.125Z,41.30
2017-09-11T13:14:00.898Z,38.30
2017-09-11T13:19:02.666Z,35.90
2017-09-11T13:24:07.485Z,36.30
2017-09-11T13:29:08.525Z,36.20
2017-09-11T13:34:09.575Z,38.40
2017-09-11T13:39:10.622Z,40.90
2017-09-11T13:44:11.666Z,41.90
2017-09-11T13:49:12.709Z,41.00
2017-09-11T13:54:14.492Z,33.50
2017-09-11T13:59:15.545Z,33.40
2017-09-11T14:04:17.342Z,32.40
2017-09-11T14:09:18.398Z,32.40
2017-09-11T14:14:19.450Z,30.70
2017-09-11T14:19:20.495Z,28.00
2017-09-11T14:24:22.303Z,29.30
2017-09-11T14:29:23.355Z,29.40
2017-09-11T14:34:24.402Z,31.00
2017-09-11T14:39:25.446Z,30.70
2017-09-11T14:44:26.489Z,32.70
2017-09-11T14:49:28.286Z,32.40
2017-09-11T14:54:29.325Z,32.30
2017-09-11T14:59:31.094Z,35.70
2017-09-11T15:04:32.890Z,35.30
2017-09-11T15:09:33.926Z,35.30
2017-09-11T15:14:35.702Z,37.90
2017-09-11T15:19:37.476Z,35.50
2017-09-11T15:24:38.531Z,35.40
2017-09-11T15:29:40.327Z,35.60
2017-09-11T15:34:41.375Z,35.60
2017-09-11T15:39:43.154Z,35.40
2017-09-11T15:44:44.933Z,37.20
2017-09-11T15:49:46.725Z,38.10
2017-09-11T15:54:47.766Z,38.10
2017-09-11T15:59:48.825Z,39.20
2017-09-11T16:04:49.862Z,39.90
2017-09-11T16:09:51.653Z,40.10
2017-09-11T16:14:52.701Z,40.00
2017-09-11T16:19:53.741Z,40.80
2017-09-11T16:24:54.781Z,42.20
2017-09-11T16:29:55.821Z,41.80
2017-09-11T16:34:56.861Z,41.60
2017-09-11T16:39:57.905Z,40.30
2017-09-11T16:44:58.946Z,42.40
2017-09-11T16:50:03.882Z,47.20
2017-09-11T16:55:05.683Z,48.60
2017-09-11T17:00:07.466Z,49.80
2017-09-11T17:05:08.510Z,49.70
2017-09-11T17:10:10.320Z,51.90
2017-09-11T17:15:11.377Z,51.90
2017-09-11T17:20:12.435Z,53.40
2017-09-11T17:25:13.472Z,54.00
2017-09-11T17:30:14.531Z,55.50
2017-09-11T17:35:15.642Z,56.10
2017-09-11T17:40:16.722Z,54.60
2017-09-11T17:45:18.542Z,54.60
2017-09-11T17:50:19.601Z,54.60
2017-09-11T17:55:20.645Z,55.70
2017-09-11T18:00:21.701Z,55.90
2017-09-11T18:05:22.753Z,55.70
2017-09-11T18:10:23.806Z,55.90
2017-09-11T18:15:24.874Z,56.20
2017-09-11T18:20:25.914Z,56.50
2017-09-11T18:25:27.709Z,54.50
2017-09-11T18:30:28.761Z,54.60
2017-09-11T18:35:29.830Z,53.70
2017-09-11T18:40:30.901Z,53.50
2017-09-11T18:45:31.968Z,54.20
2017-09-11T18:50:33.018Z,54.30
2017-09-11T18:55:34.062Z,55.30
2017-09-11T19:00:35.146Z,57.30
2017-09-11T19:05:36.197Z,57.70
2017-09-11T19:10:37.259Z,59.80
2017-09-11T19:15:38.309Z,61.60
2017-09-11T19:20:39.361Z,63.30
2017-09-11T19:25:40.426Z,64.90
2017-09-11T19:30:41.482Z,65.90
2017-09-11T19:35:42.619Z,64.80
2017-09-11T19:40:44.306Z,65.60
2017-09-11T19:45:45.360Z,68.20
2017-09-11T19:50:49.641Z,70.80
2017-09-11T19:55:50.674Z,71.90
2017-09-11T20:00:51.717Z,73.20
2017-09-11T20:05:52.741Z,75.30
2017-09-11T20:10:54.515Z,80.00
2017-09-11T20:15:56.309Z,80.80
2017-09-11T20:20:57.342Z,80.70
2017-09-11T20:25:59.126Z,82.70
2017-09-11T20:31:00.922Z,83.70
2017-09-11T20:36:01.974Z,83.60
2017-09-11T20:41:29.182Z,84.50
2017-09-11T20:46:31.233Z,85.00
2017-09-11T20:51:32.269Z,84.10
2017-09-11T20:56:34.089Z,84.90
2017-09-11T21:01:35.105Z,84.90
2017-09-11T21:06:36.881Z,85.70
2017-09-11T21:11:37.923Z,85.80
2017-09-11T21:16:39.710Z,86.30
2017-09-11T21:21:41.505Z,87.30
2017-09-11T21:26:42.561Z,87.30
2017-09-11T21:31:43.631Z,88.10
2017-09-11T21:36:44.678Z,89.20
2017-09-11T21:41:45.735Z,89.00
2017-09-11T21:46:46.785Z,86.50
2017-09-11T21:51:47.838Z,85.30
2017-09-11T21:56:48.886Z,82.70
2017-09-11T22:01:50.673Z,81.70
2017-09-11T22:06:51.758Z,81.70
2017-09-11T22:11:52.801Z,81.90
2017-09-11T22:16:53.878Z,81.20
2017-09-11T22:21:54.933Z,81.40
2017-09-11T22:26:55.974Z,83.30
2017-09-11T22:31:57.056Z,83.90
2017-09-11T22:36:58.101Z,86.30
2017-09-11T22:41:59.153Z,86.70
2017-09-11T22:47:00.185Z,88.90
2017-09-11T22:52:02.003Z,90.30
2017-09-11T22:57:03.053Z,90.30
2017-09-11T23:02:04.133Z,91.00
2017-09-11T23:07:05.185Z,91.10
2017-09-11T23:12:06.261Z,91.40
2017-09-11T23:17:07.297Z,91.40
2017-09-11T23:22:08.360Z,91.40
2017-09-11T23:27:09.394Z,90.10
2017-09-11T23:32:10.467Z,87.20
2017-09-11T23:37:11.544Z,85.30
2017-09-11T23:42:12.578Z,84.70
2017-09-11T23:47:13.616Z,83.90
2017-09-11T23:52:14.681Z,82.40
2017-09-11T23:57:15.739Z,81.10
